Time;durP1;ratioP1;P1;durP2;ratioP2;P2;SDS_P1;SDS_P2;PMS_P1;PMS_P2;Temp;Humidity;BMP_temperature;BMP_pressure;BME280_temperature;BME280_humidity;BME280_pressure;Samples;Min_cycle;Max_cycle;Signal;HPM_P1;HPM_P2
2022/03/19 00:00:31;;;;;;;21.60;11.20;;;;;;;-1.84;52.60;98903.23;108181;1270;40696;-74
2022/03/19 00:03:12;;;;;;;22.30;12.40;;;;;;;-1.96;52.83;98897.77;108128;1270;36202;-74
2022/03/19 00:05:43;;;;;;;24.30;13.70;;;;;;;-2.05;52.70;98903.30;108129;1270;31934;-75
2022/03/19 00:08:16;;;;;;;23.60;14.60;;;;;;;-2.11;52.62;98900.15;108068;1270;41599;-74
2022/03/19 00:10:47;;;;;;;22.20;12.50;;;;;;;-2.12;52.35;98903.17;108167;1270;35052;-75
2022/03/19 00:13:19;;;;;;;25.90;13.00;;;;;;;-2.12;52.48;98902.36;108178;1270;37065;-74
2022/03/19 00:15:51;;;;;;;27.20;14.60;;;;;;;-2.13;52.58;98905.20;108116;1270;102297;-75
2022/03/19 00:18:24;;;;;;;22.50;13.10;;;;;;;-2.14;52.53;98904.80;108156;1270;35029;-74
2022/03/19 00:20:56;;;;;;;25.10;13.70;;;;;;;-2.17;52.36;98899.02;108070;1270;42587;-74
2022/03/19 00:23:28;;;;;;;23.50;14.00;;;;;;;-2.20;52.44;98896.73;108095;1270;31033;-74
2022/03/19 00:25:59;;;;;;;26.20;13.80;;;;;;;-2.28;52.61;98897.06;108127;1270;42609;-74
2022/03/19 00:28:30;;;;;;;24.20;13.40;;;;;;;-2.31;52.78;98895.43;108128;1270;32554;-74
2022/03/19 00:31:01;;;;;;;24.40;13.20;;;;;;;-2.29;52.81;98894.61;108189;1269;33781;-74
2022/03/19 00:33:32;;;;;;;21.50;12.10;;;;;;;-2.21;52.87;98895.42;108191;1270;48520;-74
2022/03/19 00:36:04;;;;;;;22.80;13.10;;;;;;;-2.15;52.74;98897.47;108121;1270;29821;-73
2022/03/19 00:38:36;;;;;;;23.30;12.90;;;;;;;-2.13;52.55;98896.58;108105;1270;31566;-76
2022/03/19 00:41:06;;;;;;;21.00;11.30;;;;;;;-2.12;52.41;98899.89;108174;1268;40268;-74
2022/03/19 00:43:37;;;;;;;18.30;11.50;;;;;;;-2.16;52.29;98900.29;108187;1268;42548;-74
2022/03/19 00:46:08;;;;;;;22.80;12.80;;;;;;;-2.21;52.25;98901.79;108099;1269;29679;-74
2022/03/19 00:48:39;;;;;;;23.10;14.10;;;;;;;-2.30;52.44;98895.90;108009;1270;48563;-73
2022/03/19 00:51:10;;;;;;;23.90;12.90;;;;;;;-2.31;52.75;98892.05;108124;1270;46033;-74
2022/03/19 00:53:41;;;;;;;20.00;12.70;;;;;;;-2.30;52.83;98890.33;108101;1270;43152;-74
2022/03/19 00:56:11;;;;;;;24.80;13.80;;;;;;;-2.34;52.97;98889.52;108075;1270;41638;-74
2022/03/19 00:58:42;;;;;;;22.60;14.10;;;;;;;-2.45;53.26;98881.44;108113;1270;34791;-73
2022/03/19 01:01:13;;;;;;;21.50;13.30;;;;;;;-2.55;53.75;98880.20;108110;1270;33439;-73
2022/03/19 01:03:44;;;;;;;22.70;12.60;;;;;;;-2.71;54.21;98878.02;108124;1269;26855;-73
2022/03/19 01:06:15;;;;;;;23.70;12.80;;;;;;;-2.81;54.33;98870.80;108095;1270;42757;-74
2022/03/19 01:08:46;;;;;;;21.80;12.30;;;;;;;-2.75;54.54;98870.69;107984;1270;44678;-74
2022/03/19 01:11:17;;;;;;;20.10;12.50;;;;;;;-2.61;54.64;98872.20;107958;1270;43221;-73
2022/03/19 01:13:47;;;;;;;25.10;13.20;;;;;;;-2.52;54.61;98868.61;107990;1270;42857;-73
2022/03/19 01:16:19;;;;;;;20.10;12.80;;;;;;;-2.50;54.35;98864.84;108051;1270;34204;-73
2022/03/19 01:18:51;;;;;;;23.70;13.30;;;;;;;-2.49;54.18;98861.63;108140;1270;33723;-73
2022/03/19 01:21:22;;;;;;;23.50;13.40;;;;;;;-2.49;53.84;98864.17;107990;1270;48338;-73
2022/03/19 01:23:53;;;;;;;24.50;13.40;;;;;;;-2.55;53.55;98866.12;108056;1270;43136;-73
2022/03/19 01:26:24;;;;;;;20.10;12.90;;;;;;;-2.62;53.55;98868.38;108095;1270;96441;-73
2022/03/19 01:28:58;;;;;;;23.40;13.10;;;;;;;-2.69;53.66;98864.46;108095;1269;40977;-73
2022/03/19 01:31:29;;;;;;;27.40;13.70;;;;;;;-2.70;53.75;98867.69;108127;1270;48586;-73
2022/03/19 01:33:59;;;;;;;27.30;14.20;;;;;;;-2.71;53.71;98869.64;108207;1270;45671;-73
2022/03/19 01:36:30;;;;;;;25.50;13.80;;;;;;;-2.77;53.87;98868.83;108157;1270;38219;-73
2022/03/19 01:39:01;;;;;;;26.00;14.70;;;;;;;-2.80;54.05;98868.63;108088;1270;32505;-73
2022/03/19 01:41:32;;;;;;;26.70;14.60;;;;;;;-2.79;54.01;98864.20;108146;1270;42710;-73
2022/03/19 01:44:03;;;;;;;24.50;13.20;;;;;;;-2.79;54.08;98864.90;108120;1269;42991;-73
2022/03/19 01:46:53;;;;;;;30.00;15.90;;;;;;;-2.87;54.03;98868.38;108178;1270;35739;-73
2022/03/19 01:49:24;;;;;;;27.00;15.10;;;;;;;-2.92;53.98;98868.36;108155;1269;29224;-73
2022/03/19 01:51:55;;;;;;;26.60;14.50;;;;;;;-2.92;53.97;98871.73;108149;1270;33845;-74
2022/03/19 01:54:28;;;;;;;21.80;13.80;;;;;;;-2.97;54.00;98877.39;108162;1270;30728;-73
2022/03/19 01:57:01;;;;;;;25.10;14.20;;;;;;;-3.00;54.07;98879.89;108095;1270;51810;-73
2022/03/19 01:59:36;;;;;;;24.50;14.40;;;;;;;-3.10;54.29;98881.64;108156;1270;39175;-73
2022/03/19 02:02:11;;;;;;;23.20;13.50;;;;;;;-3.16;54.39;98882.52;108104;1270;33585;-73
2022/03/19 02:04:43;;;;;;;23.90;14.80;;;;;;;-3.19;54.46;98882.49;108063;1270;44545;-73
2022/03/19 02:07:14;;;;;;;25.50;14.40;;;;;;;-3.24;54.80;98881.30;108108;1270;43301;-73
2022/03/19 02:09:45;;;;;;;28.60;16.00;;;;;;;-3.19;55.04;98881.07;108156;1269;33937;-73
2022/03/19 02:12:16;;;;;;;24.10;15.00;;;;;;;-3.18;54.95;98880.60;108065;1270;39070;-73
2022/03/19 02:14:47;;;;;;;25.60;15.70;;;;;;;-3.26;54.89;98873.55;108062;1270;50243;-73
2022/03/19 02:17:19;;;;;;;22.90;13.50;;;;;;;-3.34;55.13;98869.40;108164;1270;28780;-72
2022/03/19 02:19:51;;;;;;;24.50;14.60;;;;;;;-3.36;55.08;98870.29;108108;1269;41048;-73
2022/03/19 02:22:26;;;;;;;28.00;16.10;;;;;;;-3.47;55.24;98863.16;108090;1270;38541;-72
2022/03/19 02:27:46;;;;;;;30.80;18.10;;;;;;;-3.69;56.16;98858.48;108117;1270;42486;-73
2022/03/19 02:30:17;;;;;;;29.10;18.60;;;;;;;-3.68;56.15;98855.42;108109;1269;40450;-72
2022/03/19 02:32:50;;;;;;;29.90;19.00;;;;;;;-3.60;56.45;98850.41;108022;1270;28662;-73
2022/03/19 02:35:22;;;;;;;34.80;21.00;;;;;;;-3.49;56.32;98847.91;108053;1270;35590;-73
2022/03/19 02:37:52;;;;;;;36.10;21.20;;;;;;;-3.39;56.07;98845.65;108069;1270;33429;-73
2022/03/19 02:40:24;;;;;;;39.40;21.20;;;;;;;-3.37;55.80;98845.52;108065;1270;41506;-73
2022/03/19 02:42:56;;;;;;;36.80;20.70;;;;;;;-3.41;55.65;98844.75;108096;1270;33130;-73
2022/03/19 02:45:27;;;;;;;38.00;22.70;;;;;;;-3.45;55.49;98845.16;108066;1270;29510;-73
2022/03/19 02:47:58;;;;;;;33.50;19.50;;;;;;;-3.44;55.72;98843.20;108048;1270;43923;-73
2022/03/19 02:50:30;;;;;;;31.00;18.20;;;;;;;-3.50;56.03;98844.06;108068;1270;40674;-73
2022/03/19 02:53:05;;;;;;;31.30;21.10;;;;;;;-3.61;56.40;98851.88;108110;1270;44351;-75
2022/03/19 02:55:37;;;;;;;31.10;18.70;;;;;;;-3.65;56.34;98853.60;108063;1270;43077;-76
2022/03/19 02:58:09;;;;;;;29.90;18.50;;;;;;;-3.60;56.19;98853.19;108019;1270;35736;-73
2022/03/19 03:00:40;;;;;;;33.30;19.00;;;;;;;-3.56;56.22;98850.46;108081;1268;32156;-75
2022/03/19 03:03:11;;;;;;;33.50;19.20;;;;;;;-3.64;56.14;98850.80;108033;1270;39536;-73
2022/03/19 03:05:43;;;;;;;30.00;16.50;;;;;;;-3.79;56.79;98853.52;107936;1270;41495;-73
2022/03/19 03:08:15;;;;;;;29.00;16.40;;;;;;;-3.83;57.56;98855.73;108092;1270;31115;-73
2022/03/19 03:10:46;;;;;;;28.50;16.30;;;;;;;-3.83;58.14;98857.63;108191;1268;32254;-72
2022/03/19 03:13:17;;;;;;;32.90;19.80;;;;;;;-3.80;58.22;98858.37;108067;1270;33502;-73
2022/03/19 03:15:48;;;;;;;32.70;20.90;;;;;;;-3.72;58.09;98859.65;108097;1269;34564;-72
2022/03/19 03:18:19;;;;;;;42.10;23.20;;;;;;;-3.67;57.83;98857.44;108071;1270;42821;-72
2022/03/19 03:20:50;;;;;;;40.10;23.40;;;;;;;-3.71;57.28;98858.61;108093;1270;39862;-72
2022/03/19 03:23:20;;;;;;;39.50;22.10;;;;;;;-3.72;57.24;98862.02;108111;1269;39259;-72
2022/03/19 03:25:51;;;;;;;37.20;22.40;;;;;;;-3.74;57.21;98858.42;108125;1270;37952;-74
2022/03/19 03:28:22;;;;;;;39.20;21.20;;;;;;;-3.80;57.03;98859.46;108105;1269;32363;-75
2022/03/19 03:30:53;;;;;;;36.30;21.00;;;;;;;-3.82;56.99;98856.81;107961;1270;43694;-75
2022/03/19 03:33:24;;;;;;;38.40;21.80;;;;;;;-3.93;56.97;98857.11;108106;1270;43219;-75
2022/03/19 03:35:54;;;;;;;33.20;18.00;;;;;;;-4.03;57.27;98855.00;108069;1270;47081;-72
2022/03/19 03:38:25;;;;;;;30.70;18.10;;;;;;;-4.03;57.51;98856.61;108091;1270;42760;-72
2022/03/19 03:40:56;;;;;;;31.30;17.90;;;;;;;-4.01;57.66;98857.08;108089;1270;35977;-73
2022/03/19 03:43:27;;;;;;;30.20;19.00;;;;;;;-4.00;57.54;98855.80;108153;1269;33504;-73
2022/03/19 03:45:58;;;;;;;30.10;18.40;;;;;;;-4.01;57.63;98857.77;108121;1269;42176;-73
2022/03/19 03:48:29;;;;;;;30.30;18.60;;;;;;;-4.02;57.88;98858.22;108053;1270;40638;-73
2022/03/19 03:51:00;;;;;;;35.90;19.40;;;;;;;-4.03;57.64;98856.04;108067;1270;30781;-73
2022/03/19 03:53:31;;;;;;;29.10;18.30;;;;;;;-4.02;57.61;98856.86;108106;1269;43963;-73
2022/03/19 03:56:02;;;;;;;33.20;18.10;;;;;;;-4.01;57.66;98851.38;107998;1270;39954;-74
2022/03/19 03:58:34;;;;;;;32.30;19.10;;;;;;;-4.00;57.41;98850.97;108069;1270;41118;-75
2022/03/19 04:01:05;;;;;;;29.10;17.90;;;;;;;-3.99;57.35;98851.05;108151;1270;35681;-75
2022/03/19 04:03:36;;;;;;;30.10;17.90;;;;;;;-3.98;57.34;98849.39;108118;1268;46742;-76
2022/03/19 04:06:07;;;;;;;28.90;17.50;;;;;;;-3.97;57.43;98847.76;108075;1270;45904;-73
2022/03/19 04:08:38;;;;;;;30.10;17.80;;;;;;;-4.01;57.54;98851.92;107987;1270;50450;-73
2022/03/19 04:11:09;;;;;;;34.90;20.30;;;;;;;-4.08;57.39;98859.07;108116;1270;45793;-72
2022/03/19 04:13:40;;;;;;;35.00;21.80;;;;;;;-4.14;57.49;98863.73;108046;1270;45405;-73
2022/03/19 04:16:10;;;;;;;32.10;18.50;;;;;;;-4.26;57.69;98864.04;108075;1270;45410;-72
2022/03/19 04:18:44;;;;;;;31.60;18.50;;;;;;;-4.45;58.24;98861.00;108146;1270;29791;-73
2022/03/19 04:21:14;;;;;;;28.20;17.30;;;;;;;-4.68;58.68;98860.49;108046;1270;44938;-72
2022/03/19 04:23:46;;;;;;;27.20;16.00;;;;;;;-4.85;59.50;98858.80;108091;1270;48080;-73
2022/03/19 04:26:17;;;;;;;26.90;13.80;;;;;;;-4.93;60.38;98855.83;108040;1270;45411;-73
2022/03/19 04:28:48;;;;;;;32.20;14.90;;;;;;;-4.93;61.16;98853.70;108088;1270;42576;-74
2022/03/19 04:31:18;;;;;;;22.60;13.80;;;;;;;-4.87;61.54;98853.59;107978;1270;41374;-74
2022/03/19 04:33:49;;;;;;;31.80;16.40;;;;;;;-4.84;61.79;98850.94;107984;1268;43251;-74
2022/03/19 04:36:32;;;;;;;33.90;18.70;;;;;;;-4.77;61.68;98850.00;108021;1270;29282;-74
2022/03/19 04:39:05;;;;;;;29.10;18.30;;;;;;;-4.65;61.26;98850.62;108071;1270;41211;-74
2022/03/19 04:41:38;;;;;;;33.40;19.50;;;;;;;-4.73;60.66;98846.10;107927;1270;44827;-75
2022/03/19 04:44:10;;;;;;;32.20;19.60;;;;;;;-4.87;61.06;98842.70;107959;1271;31982;-73
2022/03/19 04:46:41;;;;;;;34.10;20.50;;;;;;;-4.73;61.10;98844.73;108072;1270;44850;-72
2022/03/19 04:49:12;;;;;;;33.50;19.30;;;;;;;-4.83;60.72;98844.66;108064;1270;42590;-72
2022/03/19 04:51:43;;;;;;;30.70;19.10;;;;;;;-4.89;60.82;98845.85;108082;1268;43390;-74
2022/03/19 04:54:14;;;;;;;34.30;19.90;;;;;;;-4.82;60.67;98847.48;108096;1270;43682;-74
2022/03/19 04:56:45;;;;;;;31.50;18.70;;;;;;;-4.67;60.60;98844.23;108089;1270;32549;-74
2022/03/19 04:59:16;;;;;;;39.90;22.80;;;;;;;-4.49;60.81;98849.77;108043;1270;45749;-74
2022/03/19 05:01:48;;;;;;;35.10;23.40;;;;;;;-4.41;60.94;98845.77;108149;1270;42172;-74
2022/03/19 05:04:19;;;;;;;36.30;22.60;;;;;;;-4.09;60.85;98851.05;108081;1270;41852;-73
2022/03/19 05:06:50;;;;;;;37.70;22.80;;;;;;;-3.69;60.49;98853.11;108130;1270;28772;-73
2022/03/19 05:12:11;;;;;;;34.40;22.20;;;;;;;-2.58;59.61;98856.50;107993;1270;41928;-73
2022/03/19 05:14:42;;;;;;;38.40;22.30;;;;;;;-2.08;59.01;98855.40;108014;1270;42291;-73
2022/03/19 05:17:12;;;;;;;33.60;22.60;;;;;;;-1.43;58.62;98852.89;108038;1270;44126;-73
2022/03/19 05:19:43;;;;;;;39.30;23.40;;;;;;;-0.80;57.83;98855.20;108129;1269;42953;-73
2022/03/19 05:22:14;;;;;;;35.30;25.40;;;;;;;-0.42;56.77;98856.87;108140;1270;29343;-73
2022/03/19 05:24:45;;;;;;;35.30;24.00;;;;;;;-0.02;56.18;98864.05;108095;1270;39270;-73
2022/03/19 05:27:17;;;;;;;41.20;25.90;;;;;;;0.45;55.29;98865.35;108053;1270;52263;-73
2022/03/19 05:29:47;;;;;;;35.40;25.30;;;;;;;0.89;54.84;98863.08;108098;1270;33117;-73
2022/03/19 05:32:19;;;;;;;41.00;25.40;;;;;;;1.39;53.81;98860.16;108111;1269;44631;-73
2022/03/19 05:34:50;;;;;;;38.60;26.50;;;;;;;2.02;53.37;98860.74;108110;1270;42263;-73
2022/03/19 05:37:22;;;;;;;37.50;25.20;;;;;;;2.86;52.56;98857.64;108076;1270;41958;-73
2022/03/19 05:39:55;;;;;;;33.40;24.50;;;;;;;3.66;52.21;98861.33;108000;1270;49952;-73
2022/03/19 05:42:25;;;;;;;38.00;27.70;;;;;;;4.35;51.43;98865.78;108056;1270;38522;-73
2022/03/19 05:44:56;;;;;;;42.50;29.20;;;;;;;4.53;49.96;98866.96;108083;1270;31235;-73
2022/03/19 05:47:28;;;;;;;37.80;27.70;;;;;;;5.07;49.73;98865.21;108059;1270;49771;-73
2022/03/19 05:49:58;;;;;;;39.50;30.80;;;;;;;5.48;47.68;98861.17;108134;1270;32307;-73
2022/03/19 05:52:29;;;;;;;37.90;29.30;;;;;;;5.13;46.59;98869.88;108146;1269;29513;-73
2022/03/19 05:55:00;;;;;;;37.90;29.70;;;;;;;4.96;46.56;98870.92;108110;1270;33967;-73
2022/03/19 05:57:30;;;;;;;;;;;;;;;5.46;46.89;98869.27;108106;1270;42783;-73
2022/03/19 06:00:01;;;;;;;34.40;27.40;;;;;;;6.55;46.56;98867.64;108162;1269;44128;-73
2022/03/19 06:02:32;;;;;;;35.70;29.40;;;;;;;7.68;45.97;98865.09;108146;1270;32384;-73
2022/03/19 06:05:03;;;;;;;38.20;29.60;;;;;;;8.69;44.78;98863.16;108117;1269;43427;-74
2022/03/19 06:07:33;;;;;;;38.70;30.60;;;;;;;9.40;43.65;98863.40;108141;1270;34140;-73
2022/03/19 06:10:06;;;;;;;36.50;29.10;;;;;;;10.12;42.97;98854.42;108179;1270;27850;-73
2022/03/19 06:12:37;;;;;;;36.50;28.10;;;;;;;10.88;41.75;98853.62;108088;1269;41198;-73
2022/03/19 06:15:10;;;;;;;33.30;27.70;;;;;;;11.64;40.91;98855.75;108034;1270;33085;-73
2022/03/19 06:17:41;;;;;;;33.30;27.10;;;;;;;12.29;39.46;98856.19;108087;1270;50042;-74
2022/03/19 06:20:14;;;;;;;32.90;27.70;;;;;;;12.74;38.70;98862.90;108033;1270;44941;-74
2022/03/19 06:22:46;;;;;;;34.20;27.60;;;;;;;12.97;37.99;98861.21;108108;1270;42158;-74
2022/03/19 06:25:17;;;;;;;33.80;26.60;;;;;;;13.32;37.13;98864.58;108160;1270;32952;-73
2022/03/19 06:27:48;;;;;;;30.50;25.10;;;;;;;13.77;36.44;98861.42;108120;1270;44683;-74
2022/03/19 06:30:19;;;;;;;30.10;25.40;;;;;;;14.25;35.25;98862.00;108085;1270;46690;-74
2022/03/19 06:32:50;;;;;;;28.40;24.40;;;;;;;14.77;34.53;98861.67;108076;1270;44086;-73
2022/03/19 06:38:06;;;;;;;28.20;23.40;;;;;;;15.35;32.49;98865.42;108125;1269;42370;-75
2022/03/19 06:40:39;;;;;;;27.30;24.30;;;;;;;15.59;31.52;98873.29;108140;1270;39377;-74
2022/03/19 06:43:10;;;;;;;25.90;22.70;;;;;;;15.71;31.11;98872.91;108093;1270;29811;-74
2022/03/19 06:45:42;;;;;;;26.50;23.80;;;;;;;15.78;30.48;98876.19;108051;1270;44468;-74
2022/03/19 06:48:13;;;;;;;27.90;24.10;;;;;;;16.07;30.11;98876.71;108077;1269;38068;-73
2022/03/19 06:50:44;;;;;;;26.90;23.00;;;;;;;16.56;29.66;98877.52;107962;1271;41810;-74
2022/03/19 06:53:15;;;;;;;26.20;23.30;;;;;;;17.00;29.33;98878.39;108044;1270;41628;-74
2022/03/19 06:55:46;;;;;;;25.50;22.70;;;;;;;17.28;28.69;98881.77;108075;1270;41610;-74
2022/03/19 06:58:17;;;;;;;45.00;36.30;;;;;;;17.10;27.66;98879.46;108137;1270;39218;-74
2022/03/19 07:00:48;;;;;;;44.60;38.40;;;;;;;15.32;26.80;98884.01;108146;1269;33790;-74
2022/03/19 07:03:20;;;;;;;44.30;39.10;;;;;;;13.89;28.26;98890.39;108074;1270;44098;-74
2022/03/19 07:05:51;;;;;;;39.30;35.10;;;;;;;13.12;29.22;98893.20;108140;1269;39223;-74
2022/03/19 07:08:22;;;;;;;41.10;36.70;;;;;;;13.00;29.67;98896.20;108076;1270;41053;-74
2022/03/19 07:10:54;;;;;;;38.50;33.70;;;;;;;12.78;29.04;98897.70;108070;1270;50042;-73
2022/03/19 07:13:25;;;;;;;37.80;32.80;;;;;;;12.12;28.84;98894.16;108145;1269;37514;-73
2022/03/19 07:15:56;;;;;;;36.60;32.40;;;;;;;11.73;29.05;98891.91;107942;1270;40801;-73
2022/03/19 07:18:27;;;;;;;37.00;32.30;;;;;;;11.39;28.99;98891.10;108101;1270;35119;-73
2022/03/19 07:20:58;;;;;;;38.50;33.60;;;;;;;12.09;29.90;98892.86;107963;1270;33947;-73
2022/03/19 07:23:30;;;;;;;37.40;33.40;;;;;;;13.17;29.44;98898.61;108165;1270;35088;-73
2022/03/19 07:26:01;;;;;;;39.70;35.50;;;;;;;13.42;28.51;98895.62;108126;1270;34465;-73
2022/03/19 07:28:32;;;;;;;41.10;36.80;;;;;;;13.53;28.58;98900.44;108123;1269;41525;-73
2022/03/19 07:31:03;;;;;;;43.50;38.80;;;;;;;13.77;28.51;98899.55;108132;1270;39775;-73
2022/03/19 07:33:34;;;;;;;48.40;43.40;;;;;;;14.19;28.36;98894.63;108058;1270;35141;-73
2022/03/19 07:36:06;;;;;;;52.70;47.00;;;;;;;14.64;28.05;98894.08;108151;1270;36967;-73
2022/03/19 07:38:36;;;;;;;66.60;57.30;;;;;;;15.08;27.82;98894.34;108150;1270;36397;-73
2022/03/19 07:44:05;;;;;;;45.30;40.60;;;;;;;16.63;27.21;98891.25;108067;1270;36150;-74
2022/03/19 07:46:36;;;;;;;42.70;38.30;;;;;;;17.50;26.73;98893.61;108061;1270;44216;-73
2022/03/19 07:49:07;;;;;;;41.60;37.20;;;;;;;18.30;26.32;98893.56;108099;1270;41509;-76
2022/03/19 07:51:38;;;;;;;42.50;38.10;;;;;;;18.91;25.31;98890.77;108027;1270;47357;-76
2022/03/19 07:54:08;;;;;;;44.10;39.30;;;;;;;18.57;24.62;98893.17;108105;1270;43915;-75
2022/03/19 07:56:39;;;;;;;40.10;35.90;;;;;;;19.01;25.11;98894.79;108032;1270;46206;-75
2022/03/19 07:59:10;;;;;;;40.40;36.20;;;;;;;19.59;24.79;98893.63;107960;1270;41239;-75
2022/03/19 08:01:41;;;;;;;38.80;34.80;;;;;;;19.97;24.07;98893.81;108073;1270;35957;-74
2022/03/19 08:04:12;;;;;;;38.20;34.40;;;;;;;20.14;23.77;98894.69;108063;1270;42476;-75
2022/03/19 08:06:43;;;;;;;39.50;35.50;;;;;;;20.71;24.03;98896.93;108116;1270;42429;-75
2022/03/19 08:09:14;;;;;;;41.20;36.90;;;;;;;21.49;23.59;98901.39;108040;1270;36449;-74
2022/03/19 08:11:46;;;;;;;39.00;35.10;;;;;;;21.99;22.89;98900.16;108097;1270;40155;-75
2022/03/19 08:14:19;;;;;;;40.10;35.90;;;;;;;22.20;22.94;98899.98;108093;1270;45142;-74
2022/03/19 08:16:50;;;;;;;43.00;38.60;;;;;;;22.26;22.22;98902.30;108126;1270;44326;-74
2022/03/19 08:19:24;;;;;;;43.30;38.90;;;;;;;22.13;21.91;98895.90;108149;1270;36366;-74
2022/03/19 08:21:55;;;;;;;41.20;37.10;;;;;;;22.16;22.06;98897.08;108114;1270;44773;-74
2022/03/19 08:24:28;;;;;;;44.50;40.00;;;;;;;21.87;21.33;98893.84;108139;1269;33380;-75
2022/03/19 08:26:59;;;;;;;41.40;37.20;;;;;;;21.66;21.52;98893.25;108092;1270;38820;-75
2022/03/19 08:29:35;;;;;;;47.40;42.40;;;;;;;21.27;20.64;98887.94;108081;1270;48524;-74
2022/03/19 08:32:08;;;;;;;45.20;40.50;;;;;;;21.17;21.25;98889.98;108075;1270;37241;-75
2022/03/19 08:34:40;;;;;;;45.80;40.90;;;;;;;21.21;21.68;98885.66;108024;1270;48598;-74
2022/03/19 08:37:10;;;;;;;43.40;37.10;;;;;;;21.62;21.64;98886.52;108021;1270;75309;-74
2022/03/19 08:42:30;;;;;;;43.40;36.00;;;;;;;21.48;20.57;98896.46;108142;1270;34885;-74
2022/03/19 08:45:00;;;;;;;39.80;33.30;;;;;;;21.33;21.14;98893.23;107993;1272;32107;-73
2022/03/19 08:47:31;;;;;;;43.60;35.90;;;;;;;21.40;20.54;98893.73;108025;1270;35895;-73
2022/03/19 08:50:03;;;;;;;77.20;58.80;;;;;;;21.15;20.68;98890.34;108195;1269;39160;-73
2022/03/19 08:52:34;;;;;;;44.50;36.20;;;;;;;21.23;20.80;98892.81;108127;1270;30376;-73
2022/03/19 08:55:07;;;;;;;40.40;35.10;;;;;;;20.85;20.86;98897.02;108156;1270;30644;-73
2022/03/19 08:57:39;;;;;;;40.00;33.90;;;;;;;20.86;21.17;98893.20;108055;1270;48934;-74
2022/03/19 09:00:13;;;;;;;40.60;33.60;;;;;;;20.66;21.22;98892.63;107962;1270;34744;-72
2022/03/19 09:02:44;;;;;;;41.90;32.00;;;;;;;20.26;20.99;98888.96;108189;1270;27314;-73
2022/03/19 09:05:15;;;;;;;40.80;32.30;;;;;;;19.91;21.53;98887.35;107961;1270;33678;-72
2022/03/19 09:07:46;;;;;;;37.30;30.00;;;;;;;19.53;21.24;98890.45;108032;1270;47816;-76
2022/03/19 09:10:17;;;;;;;39.90;30.40;;;;;;;19.18;21.34;98886.89;108124;1270;39655;-77
2022/03/19 09:12:49;;;;;;;36.70;29.70;;;;;;;18.74;21.70;98886.95;108122;1269;41658;-77
2022/03/19 09:15:20;;;;;;;34.60;25.00;;;;;;;18.20;21.62;98890.38;108109;1268;33382;-76
2022/03/19 09:17:50;;;;;;;33.40;25.20;;;;;;;16.95;21.12;98885.61;108051;1270;74213;-77
2022/03/19 09:20:23;;;;;;;30.00;21.40;;;;;;;15.34;21.57;98889.38;108051;1270;37928;-73
2022/03/19 09:22:53;;;;;;;29.90;23.10;;;;;;;13.65;21.69;98892.33;108103;1268;50766;-74
2022/03/19 09:25:25;;;;;;;30.00;22.10;;;;;;;12.47;23.16;98892.59;108080;1270;38966;-74
2022/03/19 09:27:57;;;;;;;33.00;24.20;;;;;;;11.81;23.95;98892.86;108034;1270;31402;-74
2022/03/19 09:30:28;;;;;;;30.30;20.20;;;;;;;11.48;24.48;98897.70;108199;1270;29929;-74
2022/03/19 09:33:00;;;;;;;42.10;29.10;;;;;;;10.76;24.40;98897.33;108092;1270;32539;-75
2022/03/19 09:35:31;;;;;;;40.50;27.00;;;;;;;10.11;25.84;98896.88;108160;1270;41769;-74
2022/03/19 09:38:02;;;;;;;36.80;25.90;;;;;;;9.94;26.30;98899.60;108090;1270;42064;-74
2022/03/19 09:40:33;;;;;;;37.20;28.90;;;;;;;10.01;26.93;98897.46;108080;1270;42423;-75
2022/03/19 09:43:04;;;;;;;35.00;25.90;;;;;;;10.09;27.09;98899.86;108136;1270;44699;-74
2022/03/19 09:45:38;;;;;;;32.80;21.70;;;;;;;9.98;26.77;98896.46;108062;1270;52597;-71
2022/03/19 09:48:09;;;;;;;29.80;21.90;;;;;;;9.74;26.20;98900.41;108163;1270;33099;-72
2022/03/19 09:50:41;;;;;;;24.20;17.10;;;;;;;9.37;26.66;98901.75;108074;1270;41156;-72
2022/03/19 09:53:13;;;;;;;27.00;18.60;;;;;;;9.62;27.02;98897.75;108158;1270;31973;-72
2022/03/19 09:55:45;;;;;;;25.60;17.50;;;;;;;9.90;27.06;98892.14;108104;1270;32609;-71
2022/03/19 09:58:16;;;;;;;23.80;17.20;;;;;;;10.06;26.72;98889.33;107967;1270;115540;-72
2022/03/19 10:00:48;;;;;;;28.80;18.80;;;;;;;10.02;26.36;98886.90;108134;1270;31787;-72
2022/03/19 10:03:22;;;;;;;23.80;15.50;;;;;;;10.09;26.53;98885.77;108179;1270;36360;-72
2022/03/19 10:08:57;;;;;;;22.10;15.20;;;;;;;10.24;25.76;98889.48;108161;1270;32424;-72
2022/03/19 10:11:35;;;;;;;22.90;14.80;;;;;;;10.26;25.88;98891.86;108058;1270;33178;-72
2022/03/19 10:14:09;;;;;;;23.50;16.30;;;;;;;10.35;26.05;98896.13;108215;1270;32395;-72
2022/03/19 10:16:40;;;;;;;18.10;13.50;;;;;;;10.56;26.44;98889.16;108104;1269;52895;-72
2022/03/19 10:19:11;;;;;;;18.80;13.20;;;;;;;10.61;25.38;98887.96;108153;1270;31299;-72
2022/03/19 10:21:42;;;;;;;17.90;13.80;;;;;;;10.60;25.39;98889.65;108102;1270;46601;-72
2022/03/19 10:24:28;;;;;;;20.80;14.50;;;;;;;10.63;25.27;98886.23;108153;1269;39816;-72
2022/03/19 10:26:59;;;;;;;18.80;13.20;;;;;;;10.53;25.25;98885.40;108085;1270;32923;-72
2022/03/19 10:29:33;;;;;;;18.40;12.80;;;;;;;10.51;25.28;98884.27;108104;1270;34816;-72
2022/03/19 10:32:07;;;;;;;17.20;12.50;;;;;;;10.59;25.04;98880.16;108094;1270;42603;-72
2022/03/19 10:34:40;;;;;;;17.60;12.00;;;;;;;10.62;24.85;98874.90;108170;1270;30305;-73
2022/03/19 10:37:12;;;;;;;18.50;12.40;;;;;;;10.58;24.61;98877.05;108103;1270;29830;-72
2022/03/19 10:39:47;;;;;;;15.60;10.30;;;;;;;10.50;24.31;98875.33;107938;1270;64683;-72
2022/03/19 10:42:19;;;;;;;17.70;10.40;;;;;;;10.12;23.47;98879.86;107961;1271;66915;-72
2022/03/19 10:44:52;;;;;;;16.10;9.80;;;;;;;9.89;23.43;98874.13;108036;1270;67089;-72
2022/03/19 10:47:25;;;;;;;15.00;10.40;;;;;;;9.68;23.46;98879.65;108078;1270;37249;-72
2022/03/19 10:50:02;;;;;;;13.70;9.40;;;;;;;9.71;23.92;98875.52;108122;1270;62300;-72
2022/03/19 10:52:34;;;;;;;17.00;10.50;;;;;;;9.77;23.90;98877.05;108123;1270;107137;-72
2022/03/19 10:55:07;;;;;;;14.40;9.70;;;;;;;9.86;23.95;98874.04;108164;1270;31563;-73
2022/03/19 10:57:39;;;;;;;14.10;9.00;;;;;;;9.75;23.64;98871.10;108009;1270;37680;-73
2022/03/19 11:00:11;;;;;;;12.90;8.20;;;;;;;9.62;23.41;98869.63;108103;1270;40446;-73
2022/03/19 11:02:48;;;;;;;12.80;9.10;;;;;;;9.34;22.79;98868.14;108089;1271;64214;-72
2022/03/19 11:05:22;;;;;;;15.20;8.90;;;;;;;9.24;23.65;98867.79;108183;1270;37928;-72
2022/03/19 11:07:56;;;;;;;15.60;8.90;;;;;;;9.26;24.01;98864.57;108111;1270;40734;-72
2022/03/19 11:10:29;;;;;;;12.10;7.90;;;;;;;9.48;23.54;98860.98;107841;1270;302070;-72
2022/03/19 11:13:03;;;;;;;11.70;7.20;;;;;;;9.32;22.11;98867.13;108094;1270;31622;-73
2022/03/19 11:15:36;;;;;;;11.70;7.90;;;;;;;8.75;21.37;98867.42;108147;1270;45470;-72
2022/03/19 11:18:08;;;;;;;8.90;5.40;;;;;;;8.58;21.87;98859.60;108288;1268;32677;-74
2022/03/19 11:20:40;;;;;;;10.40;6.70;;;;;;;8.51;20.61;98865.41;107993;1270;63472;-73
2022/03/19 11:23:16;;;;;;;10.30;7.00;;;;;;;8.23;21.22;98864.04;108023;1270;71876;-73
2022/03/19 11:25:50;;;;;;;11.70;6.60;;;;;;;8.18;21.56;98854.10;108112;1270;81542;-73
2022/03/19 11:28:22;;;;;;;10.00;6.60;;;;;;;8.41;21.88;98853.56;108144;1270;60327;-73
2022/03/19 11:31:04;;;;;;;11.70;7.50;;;;;;;8.45;21.85;98859.85;108102;1267;50116;-74
2022/03/19 11:33:38;;;;;;;10.70;7.20;;;;;;;8.63;21.52;98859.71;108084;1270;58622;-72
2022/03/19 11:36:11;;;;;;;11.60;6.70;;;;;;;8.65;21.55;98852.41;108073;1270;34439;-73
2022/03/19 11:38:52;;;;;;;9.20;5.80;;;;;;;8.61;21.01;98856.86;108194;1271;28158;-72
2022/03/19 11:41:24;;;;;;;9.80;5.70;;;;;;;8.43;20.49;98857.10;108127;1270;36135;-73
2022/03/19 11:44:19;;;;;;;10.70;6.50;;;;;;;8.57;21.23;98848.34;108089;1270;35891;-75
2022/03/19 11:47:01;;;;;;;14.80;8.00;;;;;;;9.00;22.87;98838.62;108095;1271;66359;-75
2022/03/19 11:49:49;;;;;;;10.60;5.70;;;;;;;9.38;22.94;98838.87;108158;1269;45206;-73